sensor_id;sensor_type;location;lat;lon;timestamp;temperature;humidity
50544;DHT22;41176;44.032;20.900;2024-01-25T00:01:11;7.60;82.70
50544;DHT22;41176;44.032;20.900;2024-01-25T00:03:37;7.60;82.10
50544;DHT22;41176;44.032;20.900;2024-01-25T00:06:05;7.50;81.60
50544;DHT22;41176;44.032;20.900;2024-01-25T00:08:31;7.40;81.90
50544;DHT22;41176;44.032;20.900;2024-01-25T00:10:57;7.30;82.40
50544;DHT22;41176;44.032;20.900;2024-01-25T00:13:22;7.30;82.70
50544;DHT22;41176;44.032;20.900;2024-01-25T00:15:48;7.20;83.20
50544;DHT22;41176;44.032;20.900;2024-01-25T00:18:14;7.20;83.30
50544;DHT22;41176;44.032;20.900;2024-01-25T00:20:39;7.20;83.20
50544;DHT22;41176;44.032;20.900;2024-01-25T00:23:06;7.20;83.70
50544;DHT22;41176;44.032;20.900;2024-01-25T00:25:32;7.30;84.50
50544;DHT22;41176;44.032;20.900;2024-01-25T00:27:57;7.30;84.70
50544;DHT22;41176;44.032;20.900;2024-01-25T00:30:23;7.20;84.90
50544;DHT22;41176;44.032;20.900;2024-01-25T00:32:49;7.20;85.50
50544;DHT22;41176;44.032;20.900;2024-01-25T00:35:15;7.30;86.20
50544;DHT22;41176;44.032;20.900;2024-01-25T00:37:41;7.30;87.50
50544;DHT22;41176;44.032;20.900;2024-01-25T00:40:08;7.30;87.90
50544;DHT22;41176;44.032;20.900;2024-01-25T00:42:45;7.30;90.00
50544;DHT22;41176;44.032;20.900;2024-01-25T00:45:15;7.30;90.70
50544;DHT22;41176;44.032;20.900;2024-01-25T00:47:41;7.20;90.10
50544;DHT22;41176;44.032;20.900;2024-01-25T00:50:07;7.00;91.40
50544;DHT22;41176;44.032;20.900;2024-01-25T00:52:33;6.80;92.50
50544;DHT22;41176;44.032;20.900;2024-01-25T00:54:59;6.50;96.50
50544;DHT22;41176;44.032;20.900;2024-01-25T00:57:25;6.40;99.20
50544;DHT22;41176;44.032;20.900;2024-01-25T00:59:51;6.40;99.90
50544;DHT22;41176;44.032;20.900;2024-01-25T01:02:17;6.40;99.90
50544;DHT22;41176;44.032;20.900;2024-01-25T01:04:45;6.40;99.90
50544;DHT22;41176;44.032;20.900;2024-01-25T01:07:11;6.40;99.90
50544;DHT22;41176;44.032;20.900;2024-01-25T01:09:36;6.40;99.90
50544;DHT22;41176;44.032;20.900;2024-01-25T01:12:02;6.40;99.90
50544;DHT22;41176;44.032;20.900;2024-01-25T01:14:28;6.50;99.90
50544;DHT22;41176;44.032;20.900;2024-01-25T01:16:54;6.50;99.90
50544;DHT22;41176;44.032;20.900;2024-01-25T01:19:20;6.50;99.90
50544;DHT22;41176;44.032;20.900;2024-01-25T01:21:46;6.50;99.90
50544;DHT22;41176;44.032;20.900;2024-01-25T01:24:12;6.50;99.90
50544;DHT22;41176;44.032;20.900;2024-01-25T01:26:38;6.70;99.90
50544;DHT22;41176;44.032;20.900;2024-01-25T01:29:04;6.80;99.90
50544;DHT22;41176;44.032;20.900;2024-01-25T01:31:30;6.90;99.90
50544;DHT22;41176;44.032;20.900;2024-01-25T01:33:56;7.00;99.90
50544;DHT22;41176;44.032;20.900;2024-01-25T01:36:23;7.10;99.90
50544;DHT22;41176;44.032;20.900;2024-01-25T01:38:49;7.20;99.90
50544;DHT22;41176;44.032;20.900;2024-01-25T01:41:15;7.30;99.90
50544;DHT22;41176;44.032;20.900;2024-01-25T01:43:40;7.30;99.90
50544;DHT22;41176;44.032;20.900;2024-01-25T01:48:52;7.30;99.90
50544;DHT22;41176;44.032;20.900;2024-01-25T01:51:18;7.30;99.90
50544;DHT22;41176;44.032;20.900;2024-01-25T01:53:44;7.40;99.90
50544;DHT22;41176;44.032;20.900;2024-01-25T01:56:11;7.40;99.90
50544;DHT22;41176;44.032;20.900;2024-01-25T01:58:37;7.30;99.90
50544;DHT22;41176;44.032;20.900;2024-01-25T02:01:04;7.30;99.90
50544;DHT22;41176;44.032;20.900;2024-01-25T02:03:30;7.30;99.90
50544;DHT22;41176;44.032;20.900;2024-01-25T02:05:56;7.10;99.90
50544;DHT22;41176;44.032;20.900;2024-01-25T02:08:30;7.10;99.90
50544;DHT22;41176;44.032;20.900;2024-01-25T02:10:56;7.00;99.90
50544;DHT22;41176;44.032;20.900;2024-01-25T02:13:22;6.90;99.90
50544;DHT22;41176;44.032;20.900;2024-01-25T02:15:47;6.60;99.90
50544;DHT22;41176;44.032;20.900;2024-01-25T02:18:13;6.50;99.90
50544;DHT22;41176;44.032;20.900;2024-01-25T02:20:40;6.50;99.90
50544;DHT22;41176;44.032;20.900;2024-01-25T02:23:06;6.50;99.90
50544;DHT22;41176;44.032;20.900;2024-01-25T02:25:32;6.50;99.90
50544;DHT22;41176;44.032;20.900;2024-01-25T02:27:57;6.60;99.90
50544;DHT22;41176;44.032;20.900;2024-01-25T02:30:23;6.50;99.90
50544;DHT22;41176;44.032;20.900;2024-01-25T02:32:49;6.40;99.90
50544;DHT22;41176;44.032;20.900;2024-01-25T02:35:15;6.40;99.90
50544;DHT22;41176;44.032;20.900;2024-01-25T02:37:40;6.50;99.90
50544;DHT22;41176;44.032;20.900;2024-01-25T02:40:07;6.60;99.90
50544;DHT22;41176;44.032;20.900;2024-01-25T02:42:33;6.70;99.90
50544;DHT22;41176;44.032;20.900;2024-01-25T02:44:58;6.70;99.90
50544;DHT22;41176;44.032;20.900;2024-01-25T02:47:24;6.60;99.90
50544;DHT22;41176;44.032;20.900;2024-01-25T02:49:50;6.50;99.90
50544;DHT22;41176;44.032;20.900;2024-01-25T02:52:16;6.50;99.90
50544;DHT22;41176;44.032;20.900;2024-01-25T02:54:41;6.50;99.90
50544;DHT22;41176;44.032;20.900;2024-01-25T02:57:07;6.50;99.90
50544;DHT22;41176;44.032;20.900;2024-01-25T02:59:33;6.50;99.90
50544;DHT22;41176;44.032;20.900;2024-01-25T03:01:58;6.50;99.90
50544;DHT22;41176;44.032;20.900;2024-01-25T03:04:25;6.50;99.90
50544;DHT22;41176;44.032;20.900;2024-01-25T03:06:50;6.50;99.90
50544;DHT22;41176;44.032;20.900;2024-01-25T03:09:16;6.50;99.90
50544;DHT22;41176;44.032;20.900;2024-01-25T03:11:42;6.50;99.90
50544;DHT22;41176;44.032;20.900;2024-01-25T03:14:07;6.40;99.90
50544;DHT22;41176;44.032;20.900;2024-01-25T03:16:33;6.40;99.90
50544;DHT22;41176;44.032;20.900;2024-01-25T03:18:59;6.40;99.90
50544;DHT22;41176;44.032;20.900;2024-01-25T03:21:24;6.40;99.90
50544;DHT22;41176;44.032;20.900;2024-01-25T03:23:51;6.40;99.90
50544;DHT22;41176;44.032;20.900;2024-01-25T03:26:16;6.40;99.90
50544;DHT22;41176;44.032;20.900;2024-01-25T03:28:42;6.50;99.90
50544;DHT22;41176;44.032;20.900;2024-01-25T03:31:08;6.50;99.90
50544;DHT22;41176;44.032;20.900;2024-01-25T03:33:34;6.60;99.90
50544;DHT22;41176;44.032;20.900;2024-01-25T03:36:03;6.60;99.90
50544;DHT22;41176;44.032;20.900;2024-01-25T03:38:29;6.60;99.90
50544;DHT22;41176;44.032;20.900;2024-01-25T03:40:55;6.60;99.90
50544;DHT22;41176;44.032;20.900;2024-01-25T03:43:27;6.60;99.90
50544;DHT22;41176;44.032;20.900;2024-01-25T03:45:53;6.50;99.90
50544;DHT22;41176;44.032;20.900;2024-01-25T03:48:19;6.50;99.90
50544;DHT22;41176;44.032;20.900;2024-01-25T03:50:45;6.50;99.90
50544;DHT22;41176;44.032;20.900;2024-01-25T03:53:11;6.40;99.90
50544;DHT22;41176;44.032;20.900;2024-01-25T03:55:36;6.40;99.90
50544;DHT22;41176;44.032;20.900;2024-01-25T03:58:02;6.50;99.90
50544;DHT22;41176;44.032;20.900;2024-01-25T04:00:28;6.50;99.90
50544;DHT22;41176;44.032;20.900;2024-01-25T04:02:54;6.50;99.90
50544;DHT22;41176;44.032;20.900;2024-01-25T04:05:19;6.50;99.90
50544;DHT22;41176;44.032;20.900;2024-01-25T04:07:45;6.40;99.90
50544;DHT22;41176;44.032;20.900;2024-01-25T04:10:11;6.40;99.90
50544;DHT22;41176;44.032;20.900;2024-01-25T04:12:36;6.40;99.90
50544;DHT22;41176;44.032;20.900;2024-01-25T04:15:02;6.50;99.90
50544;DHT22;41176;44.032;20.900;2024-01-25T04:17:28;6.40;99.90
50544;DHT22;41176;44.032;20.900;2024-01-25T04:19:54;6.50;99.90
50544;DHT22;41176;44.032;20.900;2024-01-25T04:22:20;6.40;99.90
50544;DHT22;41176;44.032;20.900;2024-01-25T04:24:45;6.40;99.90
50544;DHT22;41176;44.032;20.900;2024-01-25T04:27:14;6.40;99.90
50544;DHT22;41176;44.032;20.900;2024-01-25T04:29:40;6.40;99.90
50544;DHT22;41176;44.032;20.900;2024-01-25T04:32:07;6.40;99.90
50544;DHT22;41176;44.032;20.900;2024-01-25T04:34:33;6.40;99.90
50544;DHT22;41176;44.032;20.900;2024-01-25T04:36:59;6.50;99.90
50544;DHT22;41176;44.032;20.900;2024-01-25T04:39:24;6.50;99.90
50544;DHT22;41176;44.032;20.900;2024-01-25T04:41:50;6.50;99.90
50544;DHT22;41176;44.032;20.900;2024-01-25T04:44:16;6.60;99.90
50544;DHT22;41176;44.032;20.900;2024-01-25T04:46:42;6.60;99.90
50544;DHT22;41176;44.032;20.900;2024-01-25T04:49:07;6.60;99.90
50544;DHT22;41176;44.032;20.900;2024-01-25T04:51:33;6.60;99.90
50544;DHT22;41176;44.032;20.900;2024-01-25T04:53:59;6.60;99.90
50544;DHT22;41176;44.032;20.900;2024-01-25T04:56:25;6.50;99.90
50544;DHT22;41176;44.032;20.900;2024-01-25T04:58:50;6.50;99.90
50544;DHT22;41176;44.032;20.900;2024-01-25T05:01:16;6.50;99.90
50544;DHT22;41176;44.032;20.900;2024-01-25T05:03:42;6.50;99.90
50544;DHT22;41176;44.032;20.900;2024-01-25T05:06:08;6.50;99.90
50544;DHT22;41176;44.032;20.900;2024-01-25T05:08:34;6.60;99.90
50544;DHT22;41176;44.032;20.900;2024-01-25T05:11:00;6.60;99.90
50544;DHT22;41176;44.032;20.900;2024-01-25T05:13:26;6.60;99.90
50544;DHT22;41176;44.032;20.900;2024-01-25T05:15:51;6.60;99.90
50544;DHT22;41176;44.032;20.900;2024-01-25T05:18:17;6.70;99.90
50544;DHT22;41176;44.032;20.900;2024-01-25T05:20:43;6.60;99.90
50544;DHT22;41176;44.032;20.900;2024-01-25T05:23:09;6.70;99.90
50544;DHT22;41176;44.032;20.900;2024-01-25T05:25:34;6.70;99.90
50544;DHT22;41176;44.032;20.900;2024-01-25T05:28:00;6.70;99.90
50544;DHT22;41176;44.032;20.900;2024-01-25T05:30:26;6.80;99.90
50544;DHT22;41176;44.032;20.900;2024-01-25T05:32:52;6.80;99.90
50544;DHT22;41176;44.032;20.900;2024-01-25T05:35:20;6.90;99.90
50544;DHT22;41176;44.032;20.900;2024-01-25T05:37:46;6.90;99.90
50544;DHT22;41176;44.032;20.900;2024-01-25T05:40:12;6.90;99.90
50544;DHT22;41176;44.032;20.900;2024-01-25T05:42:39;7.00;99.90
50544;DHT22;41176;44.032;20.900;2024-01-25T05:45:05;7.00;99.90
50544;DHT22;41176;44.032;20.900;2024-01-25T05:47:31;7.00;99.90
50544;DHT22;41176;44.032;20.900;2024-01-25T05:49:57;7.00;99.90
50544;DHT22;41176;44.032;20.900;2024-01-25T05:52:23;7.00;99.90
50544;DHT22;41176;44.032;20.900;2024-01-25T05:54:50;7.00;99.90
50544;DHT22;41176;44.032;20.900;2024-01-25T05:57:16;7.10;99.90
50544;DHT22;41176;44.032;20.900;2024-01-25T05:59:43;7.10;99.90
50544;DHT22;41176;44.032;20.900;2024-01-25T06:02:09;7.10;99.90
50544;DHT22;41176;44.032;20.900;2024-01-25T06:04:35;7.10;99.90
50544;DHT22;41176;44.032;20.900;2024-01-25T06:07:01;7.10;99.90
50544;DHT22;41176;44.032;20.900;2024-01-25T06:09:26;7.10;99.90
50544;DHT22;41176;44.032;20.900;2024-01-25T06:11:53;7.20;99.90
50544;DHT22;41176;44.032;20.900;2024-01-25T06:14:18;7.30;99.90
50544;DHT22;41176;44.032;20.900;2024-01-25T06:16:44;7.40;99.90
50544;DHT22;41176;44.032;20.900;2024-01-25T06:19:10;7.50;99.90
50544;DHT22;41176;44.032;20.900;2024-01-25T06:21:36;7.60;99.90
50544;DHT22;41176;44.032;20.900;2024-01-25T06:24:06;7.80;99.90
50544;DHT22;41176;44.032;20.900;2024-01-25T06:26:32;8.00;99.90
50544;DHT22;41176;44.032;20.900;2024-01-25T06:28:58;8.10;99.90
50544;DHT22;41176;44.032;20.900;2024-01-25T06:31:24;8.20;99.90
50544;DHT22;41176;44.032;20.900;2024-01-25T06:33:50;8.30;99.90
50544;DHT22;41176;44.032;20.900;2024-01-25T06:36:21;8.40;99.90
50544;DHT22;41176;44.032;20.900;2024-01-25T06:38:47;8.40;99.90
50544;DHT22;41176;44.032;20.900;2024-01-25T06:41:13;8.40;99.90
50544;DHT22;41176;44.032;20.900;2024-01-25T06:43:40;8.40;99.90
50544;DHT22;41176;44.032;20.900;2024-01-25T06:46:06;8.60;99.90
50544;DHT22;41176;44.032;20.900;2024-01-25T06:48:33;8.60;99.90
50544;DHT22;41176;44.032;20.900;2024-01-25T06:50:59;8.60;99.90
50544;DHT22;41176;44.032;20.900;2024-01-25T06:53:26;8.50;99.90
50544;DHT22;41176;44.032;20.900;2024-01-25T06:55:52;8.60;99.90
50544;DHT22;41176;44.032;20.900;2024-01-25T06:58:18;8.70;99.90
50544;DHT22;41176;44.032;20.900;2024-01-25T07:00:44;8.80;99.90
50544;DHT22;41176;44.032;20.900;2024-01-25T07:03:12;8.80;99.90
50544;DHT22;41176;44.032;20.900;2024-01-25T07:05:38;8.90;99.90
50544;DHT22;41176;44.032;20.900;2024-01-25T07:08:04;9.00;99.90
50544;DHT22;41176;44.032;20.900;2024-01-25T07:10:30;9.00;99.90
50544;DHT22;41176;44.032;20.900;2024-01-25T07:12:56;9.00;99.90
50544;DHT22;41176;44.032;20.900;2024-01-25T07:15:22;9.00;99.90
50544;DHT22;41176;44.032;20.900;2024-01-25T07:17:47;9.00;99.90
50544;DHT22;41176;44.032;20.900;2024-01-25T07:20:13;9.00;99.90
50544;DHT22;41176;44.032;20.900;2024-01-25T07:22:40;9.10;99.90
50544;DHT22;41176;44.032;20.900;2024-01-25T07:25:06;9.20;99.90
50544;DHT22;41176;44.032;20.900;2024-01-25T07:27:32;9.20;99.90
50544;DHT22;41176;44.032;20.900;2024-01-25T07:29:57;9.30;99.90
50544;DHT22;41176;44.032;20.900;2024-01-25T07:32:23;9.30;99.90
50544;DHT22;41176;44.032;20.900;2024-01-25T07:34:52;9.40;99.90
50544;DHT22;41176;44.032;20.900;2024-01-25T07:37:19;9.30;99.90
50544;DHT22;41176;44.032;20.900;2024-01-25T07:39:45;9.40;99.90
50544;DHT22;41176;44.032;20.900;2024-01-25T07:42:11;9.40;99.90
50544;DHT22;41176;44.032;20.900;2024-01-25T07:44:38;9.50;99.90
50544;DHT22;41176;44.032;20.900;2024-01-25T07:47:03;9.50;99.90
50544;DHT22;41176;44.032;20.900;2024-01-25T07:49:30;9.60;99.90
50544;DHT22;41176;44.032;20.900;2024-01-25T07:51:56;9.60;99.90
50544;DHT22;41176;44.032;20.900;2024-01-25T07:54:22;9.60;99.90
50544;DHT22;41176;44.032;20.900;2024-01-25T07:56:48;9.70;99.90
50544;DHT22;41176;44.032;20.900;2024-01-25T07:59:14;9.70;99.90
50544;DHT22;41176;44.032;20.900;2024-01-25T08:01:40;9.70;99.90
50544;DHT22;41176;44.032;20.900;2024-01-25T08:04:05;9.80;99.90
50544;DHT22;41176;44.032;20.900;2024-01-25T08:06:31;9.90;99.90
50544;DHT22;41176;44.032;20.900;2024-01-25T08:08:57;9.90;99.10
50544;DHT22;41176;44.032;20.900;2024-01-25T08:11:23;9.90;99.30
50544;DHT22;41176;44.032;20.900;2024-01-25T08:13:49;9.90;97.90
50544;DHT22;41176;44.032;20.900;2024-01-25T08:16:15;10.00;97.40
50544;DHT22;41176;44.032;20.900;2024-01-25T08:18:48;10.00;96.40
50544;DHT22;41176;44.032;20.900;2024-01-25T08:21:14;10.10;96.80
50544;DHT22;41176;44.032;20.900;2024-01-25T08:23:40;10.20;95.80
50544;DHT22;41176;44.032;20.900;2024-01-25T08:26:07;10.20;95.60
50544;DHT22;41176;44.032;20.900;2024-01-25T08:28:35;10.30;93.80
50544;DHT22;41176;44.032;20.900;2024-01-25T08:31:01;10.50;93.60
50544;DHT22;41176;44.032;20.900;2024-01-25T08:33:27;10.60;93.50
50544;DHT22;41176;44.032;20.900;2024-01-25T08:35:53;10.70;93.20
50544;DHT22;41176;44.032;20.900;2024-01-25T08:38:19;10.80;93.00
50544;DHT22;41176;44.032;20.900;2024-01-25T08:40:45;10.90;92.30
50544;DHT22;41176;44.032;20.900;2024-01-25T08:43:10;11.00;92.40
50544;DHT22;41176;44.032;20.900;2024-01-25T08:45:36;11.00;91.60
50544;DHT22;41176;44.032;20.900;2024-01-25T08:48:04;11.00;91.90
50544;DHT22;41176;44.032;20.900;2024-01-25T08:50:29;11.00;92.10
50544;DHT22;41176;44.032;20.900;2024-01-25T08:52:55;11.10;91.80
50544;DHT22;41176;44.032;20.900;2024-01-25T08:55:21;11.00;89.20
50544;DHT22;41176;44.032;20.900;2024-01-25T08:57:49;11.00;90.90
50544;DHT22;41176;44.032;20.900;2024-01-25T09:00:15;11.10;88.40
50544;DHT22;41176;44.032;20.900;2024-01-25T09:02:41;11.00;89.10
50544;DHT22;41176;44.032;20.900;2024-01-25T09:05:08;11.10;87.20
50544;DHT22;41176;44.032;20.900;2024-01-25T09:07:34;11.10;86.30
50544;DHT22;41176;44.032;20.900;2024-01-25T09:10:01;11.10;86.60
50544;DHT22;41176;44.032;20.900;2024-01-25T09:12:27;11.10;86.70
50544;DHT22;41176;44.032;20.900;2024-01-25T09:14:52;11.20;87.40
50544;DHT22;41176;44.032;20.900;2024-01-25T09:17:18;11.20;87.00
50544;DHT22;41176;44.032;20.900;2024-01-25T09:19:51;11.20;86.70
50544;DHT22;41176;44.032;20.900;2024-01-25T09:22:17;11.20;86.40
50544;DHT22;41176;44.032;20.900;2024-01-25T09:24:45;11.20;86.30
50544;DHT22;41176;44.032;20.900;2024-01-25T09:27:11;11.20;86.40
50544;DHT22;41176;44.032;20.900;2024-01-25T09:29:39;11.20;85.00
50544;DHT22;41176;44.032;20.900;2024-01-25T09:32:07;11.20;86.40
50544;DHT22;41176;44.032;20.900;2024-01-25T09:34:39;11.20;86.10
50544;DHT22;41176;44.032;20.900;2024-01-25T09:37:05;11.20;86.60
50544;DHT22;41176;44.032;20.900;2024-01-25T09:39:34;11.30;87.60
50544;DHT22;41176;44.032;20.900;2024-01-25T09:42:02;11.30;86.80
50544;DHT22;41176;44.032;20.900;2024-01-25T09:44:28;11.30;85.70
50544;DHT22;41176;44.032;20.900;2024-01-25T09:46:54;11.30;86.50
50544;DHT22;41176;44.032;20.900;2024-01-25T09:49:20;11.30;85.60
50544;DHT22;41176;44.032;20.900;2024-01-25T09:51:47;11.30;84.50
50544;DHT22;41176;44.032;20.900;2024-01-25T09:54:16;11.20;85.60
50544;DHT22;41176;44.032;20.900;2024-01-25T09:56:42;11.10;85.10
50544;DHT22;41176;44.032;20.900;2024-01-25T09:59:08;11.10;83.60
50544;DHT22;41176;44.032;20.900;2024-01-25T10:01:34;11.00;85.40
50544;DHT22;41176;44.032;20.900;2024-01-25T10:04:00;11.00;84.50
50544;DHT22;41176;44.032;20.900;2024-01-25T10:06:26;11.00;83.40
50544;DHT22;41176;44.032;20.900;2024-01-25T10:08:53;11.00;84.00
50544;DHT22;41176;44.032;20.900;2024-01-25T10:11:19;11.10;83.50
50544;DHT22;41176;44.032;20.900;2024-01-25T10:13:48;11.10;83.00
50544;DHT22;41176;44.032;20.900;2024-01-25T10:16:18;11.20;83.80
50544;DHT22;41176;44.032;20.900;2024-01-25T10:18:46;11.10;83.50
50544;DHT22;41176;44.032;20.900;2024-01-25T10:21:13;11.10;85.70
50544;DHT22;41176;44.032;20.900;2024-01-25T10:23:40;11.00;84.60
50544;DHT22;41176;44.032;20.900;2024-01-25T10:26:08;11.00;84.50
50544;DHT22;41176;44.032;20.900;2024-01-25T10:28:34;11.00;84.90
50544;DHT22;41176;44.032;20.900;2024-01-25T10:31:01;11.10;84.70
50544;DHT22;41176;44.032;20.900;2024-01-25T10:33:28;11.00;83.20
50544;DHT22;41176;44.032;20.900;2024-01-25T10:36:02;11.00;84.40
50544;DHT22;41176;44.032;20.900;2024-01-25T10:38:33;11.10;84.30
50544;DHT22;41176;44.032;20.900;2024-01-25T10:41:01;11.00;85.40
50544;DHT22;41176;44.032;20.900;2024-01-25T10:43:28;11.10;85.90
50544;DHT22;41176;44.032;20.900;2024-01-25T10:45:56;11.10;86.80
50544;DHT22;41176;44.032;20.900;2024-01-25T10:48:25;11.10;89.10
50544;DHT22;41176;44.032;20.900;2024-01-25T10:50:55;11.10;90.30
50544;DHT22;41176;44.032;20.900;2024-01-25T10:53:23;11.00;90.10
50544;DHT22;41176;44.032;20.900;2024-01-25T10:55:49;11.00;90.40
50544;DHT22;41176;44.032;20.900;2024-01-25T10:58:18;10.80;90.70
50544;DHT22;41176;44.032;20.900;2024-01-25T11:00:56;10.70;91.80
50544;DHT22;41176;44.032;20.900;2024-01-25T11:03:30;10.70;92.40
50544;DHT22;41176;44.032;20.900;2024-01-25T11:06:11;10.60;93.40
50544;DHT22;41176;44.032;20.900;2024-01-25T11:08:39;10.50;94.50
50544;DHT22;41176;44.032;20.900;2024-01-25T11:11:11;10.40;95.70
50544;DHT22;41176;44.032;20.900;2024-01-25T11:13:43;10.40;96.00
50544;DHT22;41176;44.032;20.900;2024-01-25T11:16:16;10.40;96.40
50544;DHT22;41176;44.032;20.900;2024-01-25T11:18:54;10.40;96.90
50544;DHT22;41176;44.032;20.900;2024-01-25T11:21:39;10.40;98.10
50544;DHT22;41176;44.032;20.900;2024-01-25T11:24:29;10.20;99.20
50544;DHT22;41176;44.032;20.900;2024-01-25T11:26:56;10.20;99.90
50544;DHT22;41176;44.032;20.900;2024-01-25T11:29:22;10.30;99.90
50544;DHT22;41176;44.032;20.900;2024-01-25T11:31:50;10.30;99.90
50544;DHT22;41176;44.032;20.900;2024-01-25T11:34:17;10.30;99.90
50544;DHT22;41176;44.032;20.900;2024-01-25T11:36:46;10.20;99.90
50544;DHT22;41176;44.032;20.900;2024-01-25T11:39:13;10.20;99.90
50544;DHT22;41176;44.032;20.900;2024-01-25T11:41:39;10.10;99.90
50544;DHT22;41176;44.032;20.900;2024-01-25T11:44:05;10.10;99.90
50544;DHT22;41176;44.032;20.900;2024-01-25T11:46:31;9.90;99.90
50544;DHT22;41176;44.032;20.900;2024-01-25T11:48:59;9.90;99.90
50544;DHT22;41176;44.032;20.900;2024-01-25T11:51:25;9.90;99.90
50544;DHT22;41176;44.032;20.900;2024-01-25T11:53:51;9.80;99.90
50544;DHT22;41176;44.032;20.900;2024-01-25T11:56:32;9.70;99.90
50544;DHT22;41176;44.032;20.900;2024-01-25T11:58:59;9.80;99.90
50544;DHT22;41176;44.032;20.900;2024-01-25T12:01:26;9.90;99.90
50544;DHT22;41176;44.032;20.900;2024-01-25T12:03:53;9.90;99.90
50544;DHT22;41176;44.032;20.900;2024-01-25T12:06:20;9.90;99.90
50544;DHT22;41176;44.032;20.900;2024-01-25T12:08:46;10.00;99.90
50544;DHT22;41176;44.032;20.900;2024-01-25T12:11:14;9.90;99.90
50544;DHT22;41176;44.032;20.900;2024-01-25T12:13:41;9.90;99.90
50544;DHT22;41176;44.032;20.900;2024-01-25T12:16:08;9.60;99.90
50544;DHT22;41176;44.032;20.900;2024-01-25T12:18:34;9.50;99.90
50544;DHT22;41176;44.032;20.900;2024-01-25T12:21:02;9.40;99.90
50544;DHT22;41176;44.032;20.900;2024-01-25T12:23:38;9.40;99.90
50544;DHT22;41176;44.032;20.900;2024-01-25T12:26:06;9.30;99.90
50544;DHT22;41176;44.032;20.900;2024-01-25T12:28:32;9.40;99.90
50544;DHT22;41176;44.032;20.900;2024-01-25T12:31:02;9.70;99.90
50544;DHT22;41176;44.032;20.900;2024-01-25T12:33:29;10.50;99.90
50544;DHT22;41176;44.032;20.900;2024-01-25T12:35:55;10.80;99.90
50544;DHT22;41176;44.032;20.900;2024-01-25T12:38:21;11.70;99.90
50544;DHT22;41176;44.032;20.900;2024-01-25T12:40:48;11.90;99.90
50544;DHT22;41176;44.032;20.900;2024-01-25T12:43:15;11.50;99.90
50544;DHT22;41176;44.032;20.900;2024-01-25T12:45:41;11.30;99.90
50544;DHT22;41176;44.032;20.900;2024-01-25T12:48:07;10.90;99.90
50544;DHT22;41176;44.032;20.900;2024-01-25T12:50:37;10.90;99.90
50544;DHT22;41176;44.032;20.900;2024-01-25T12:53:03;11.40;99.90
50544;DHT22;41176;44.032;20.900;2024-01-25T12:55:30;12.00;99.90
50544;DHT22;41176;44.032;20.900;2024-01-25T12:57:59;12.60;99.90
50544;DHT22;41176;44.032;20.900;2024-01-25T13:00:25;13.00;98.30
50544;DHT22;41176;44.032;20.900;2024-01-25T13:02:51;13.40;96.20
50544;DHT22;41176;44.032;20.900;2024-01-25T13:05:17;13.20;95.30
50544;DHT22;41176;44.032;20.900;2024-01-25T13:07:43;13.60;94.90
50544;DHT22;41176;44.032;20.900;2024-01-25T13:10:09;13.80;93.20
50544;DHT22;41176;44.032;20.900;2024-01-25T13:12:37;13.60;92.60
50544;DHT22;41176;44.032;20.900;2024-01-25T13:15:03;13.40;93.20
50544;DHT22;41176;44.032;20.900;2024-01-25T13:17:29;12.80;95.00
50544;DHT22;41176;44.032;20.900;2024-01-25T13:19:57;12.30;96.40
50544;DHT22;41176;44.032;20.900;2024-01-25T13:22:23;12.10;98.10
50544;DHT22;41176;44.032;20.900;2024-01-25T13:24:50;11.90;99.90
50544;DHT22;41176;44.032;20.900;2024-01-25T13:27:16;12.10;99.90
50544;DHT22;41176;44.032;20.900;2024-01-25T13:29:42;12.50;99.90
50544;DHT22;41176;44.032;20.900;2024-01-25T13:32:08;12.40;99.90
50544;DHT22;41176;44.032;20.900;2024-01-25T13:34:34;12.20;99.90
50544;DHT22;41176;44.032;20.900;2024-01-25T13:37:00;12.20;99.90
50544;DHT22;41176;44.032;20.900;2024-01-25T13:39:25;11.90;99.90
50544;DHT22;41176;44.032;20.900;2024-01-25T13:41:52;11.70;99.90
50544;DHT22;41176;44.032;20.900;2024-01-25T13:44:18;11.60;99.90
50544;DHT22;41176;44.032;20.900;2024-01-25T13:46:43;11.40;99.90
50544;DHT22;41176;44.032;20.900;2024-01-25T13:49:09;11.40;99.90
50544;DHT22;41176;44.032;20.900;2024-01-25T13:51:35;11.40;99.90
50544;DHT22;41176;44.032;20.900;2024-01-25T13:54:01;11.50;99.90
50544;DHT22;41176;44.032;20.900;2024-01-25T13:56:27;11.50;99.90
50544;DHT22;41176;44.032;20.900;2024-01-25T13:58:52;11.30;99.90
50544;DHT22;41176;44.032;20.900;2024-01-25T14:01:19;11.30;99.90
50544;DHT22;41176;44.032;20.900;2024-01-25T14:03:45;11.20;99.90
50544;DHT22;41176;44.032;20.900;2024-01-25T14:06:10;11.20;99.90
50544;DHT22;41176;44.032;20.900;2024-01-25T14:08:37;11.20;99.90
50544;DHT22;41176;44.032;20.900;2024-01-25T14:11:03;11.10;99.90
50544;DHT22;41176;44.032;20.900;2024-01-25T14:13:31;11.10;99.90
50544;DHT22;41176;44.032;20.900;2024-01-25T14:15:57;11.10;99.90
50544;DHT22;41176;44.032;20.900;2024-01-25T14:18:26;11.10;99.90
50544;DHT22;41176;44.032;20.900;2024-01-25T14:20:52;11.20;99.90
50544;DHT22;41176;44.032;20.900;2024-01-25T14:23:19;11.20;99.90
50544;DHT22;41176;44.032;20.900;2024-01-25T14:25:45;11.10;99.90
50544;DHT22;41176;44.032;20.900;2024-01-25T14:28:11;11.00;99.90
50544;DHT22;41176;44.032;20.900;2024-01-25T14:30:36;11.00;99.90
50544;DHT22;41176;44.032;20.900;2024-01-25T14:33:02;10.90;99.90
50544;DHT22;41176;44.032;20.900;2024-01-25T14:35:29;11.10;99.90
50544;DHT22;41176;44.032;20.900;2024-01-25T14:37:55;11.40;99.90
50544;DHT22;41176;44.032;20.900;2024-01-25T14:40:22;11.70;99.90
50544;DHT22;41176;44.032;20.900;2024-01-25T14:42:48;11.80;99.30
50544;DHT22;41176;44.032;20.900;2024-01-25T14:45:14;11.80;98.90
50544;DHT22;41176;44.032;20.900;2024-01-25T14:47:39;11.80;98.70
50544;DHT22;41176;44.032;20.900;2024-01-25T14:50:06;11.80;97.80
50544;DHT22;41176;44.032;20.900;2024-01-25T14:52:32;11.60;98.90
50544;DHT22;41176;44.032;20.900;2024-01-25T14:55:02;11.40;99.60
50544;DHT22;41176;44.032;20.900;2024-01-25T14:57:28;11.30;99.00
50544;DHT22;41176;44.032;20.900;2024-01-25T14:59:54;11.20;99.00
50544;DHT22;41176;44.032;20.900;2024-01-25T15:02:19;10.90;99.90
50544;DHT22;41176;44.032;20.900;2024-01-25T15:04:45;10.80;99.90
50544;DHT22;41176;44.032;20.900;2024-01-25T15:07:11;10.70;99.90
50544;DHT22;41176;44.032;20.900;2024-01-25T15:09:37;10.60;99.90
50544;DHT22;41176;44.032;20.900;2024-01-25T15:12:03;10.60;99.90
50544;DHT22;41176;44.032;20.900;2024-01-25T15:14:29;10.50;99.90
50544;DHT22;41176;44.032;20.900;2024-01-25T15:16:55;10.40;99.90
50544;DHT22;41176;44.032;20.900;2024-01-25T15:19:21;10.30;99.90
50544;DHT22;41176;44.032;20.900;2024-01-25T15:21:46;10.30;99.90
50544;DHT22;41176;44.032;20.900;2024-01-25T15:24:12;10.20;99.90